Time;durP1;ratioP1;P1;durP2;ratioP2;P2;SDS_P1;SDS_P2;PMS_P1;PMS_P2;Temp;Humidity;BMP_temperature;BMP_pressure;BME280_temperature;BME280_humidity;BME280_pressure;Samples;Min_cycle;Max_cycle;Signal;HPM_P1;HPM_P2
2021/07/13 00:02:17;;;;;;;3.40;1.70;;;23.70;69.40;;;;;;5157052;27;27478;-58
2021/07/13 00:05:17;;;;;;;3.80;1.50;;;23.60;69.30;;;;;;5182822;27;27384;-62
2021/07/13 00:08:06;;;;;;;6.78;1.50;;;23.60;69.20;;;;;;5185893;27;27478;-62
2021/07/13 00:10:55;;;;;;;6.22;2.13;;;23.60;69.40;;;;;;5171425;27;27956;-61
2021/07/13 00:13:42;;;;;;;6.88;2.60;;;23.60;69.60;;;;;;5185685;27;27419;-59
2021/07/13 00:16:44;;;;;;;3.40;1.77;;;23.50;69.80;;;;;;5156856;27;27447;-59
2021/07/13 00:19:31;;;;;;;8.20;2.88;;;23.50;70.20;;;;;;5155383;27;27393;-62
2021/07/13 00:22:18;;;;;;;7.55;2.38;;;23.50;70.20;;;;;;5186675;27;27369;-63
2021/07/13 00:25:07;;;;;;;6.45;2.05;;;23.50;70.60;;;;;;5190168;27;27376;-61
2021/07/13 00:27:54;;;;;;;4.30;1.77;;;23.40;71.30;;;;;;5189210;27;27419;-58
2021/07/13 00:30:42;;;;;;;3.88;1.52;;;23.40;71.50;;;;;;5160317;27;27346;-58
2021/07/13 00:33:28;;;;;;;5.45;1.85;;;23.30;71.50;;;;;;5174806;27;27452;-59
2021/07/13 00:36:18;;;;;;;3.97;2.42;;;23.40;71.10;;;;;;5190038;27;27432;-58
2021/07/13 00:39:09;;;;;;;16.08;2.97;;;23.30;71.50;;;;;;5171113;27;27318;-58
2021/07/13 00:41:58;;;;;;;3.78;1.60;;;23.30;71.30;;;;;;5189216;27;27471;-59
2021/07/13 00:44:46;;;;;;;4.90;1.63;;;23.30;71.40;;;;;;5189396;27;27377;-57
2021/07/13 00:47:33;;;;;;;4.60;1.80;;;23.20;71.60;;;;;;5186349;27;27336;-58
2021/07/13 00:50:22;;;;;;;5.53;1.58;;;23.20;71.70;;;;;;5189023;27;26912;-58
2021/07/13 00:53:09;;;;;;;4.70;1.63;;;23.20;71.80;;;;;;5156351;27;27334;-59
2021/07/13 00:55:57;;;;;;;3.10;1.48;;;23.10;71.80;;;;;;5189328;27;27354;-61
2021/07/13 00:58:44;;;;;;;3.90;1.55;;;23.10;71.90;;;;;;5188669;27;27534;-58
2021/07/13 01:01:33;;;;;;;4.28;1.70;;;23.10;71.80;;;;;;5188683;27;27441;-61
2021/07/13 01:04:58;;;;;;;4.35;1.42;;;23.10;72.00;;;;;;5178883;27;27482;-57
2021/07/13 01:08:01;;;;;;;2.22;1.42;;;23.00;72.00;;;;;;5174640;27;27350;-58
2021/07/13 01:11:12;;;;;;;5.38;1.40;;;23.00;72.10;;;;;;5188536;27;27444;-59
2021/07/13 01:14:17;;;;;;;2.55;1.30;;;23.00;72.20;;;;;;5146287;27;27536;-57
2021/07/13 01:17:16;;;;;;;2.25;1.15;;;23.00;72.20;;;;;;5189173;27;27427;-59
2021/07/13 01:20:33;;;;;;;2.75;1.50;;;23.00;72.40;;;;;;5188283;27;27503;-58
2021/07/13 01:23:30;;;;;;;6.93;1.75;;;22.90;72.40;;;;;;5178194;27;27625;-59
2021/07/13 01:26:47;;;;;;;1.95;1.10;;;22.90;72.60;;;;;;5174100;27;27377;-57
2021/07/13 01:29:35;;;;;;;4.53;1.67;;;22.90;72.80;;;;;;5188973;27;26904;-62
2021/07/13 01:32:28;;;;;;;2.70;1.80;;;22.90;72.80;;;;;;5158562;27;27883;-59
2021/07/13 01:35:50;;;;;;;5.72;1.60;;;22.90;72.90;;;;;;5187968;27;27436;-60
2021/07/13 01:38:41;;;;;;;6.93;1.85;;;22.80;73.00;;;;;;5182745;27;27442;-61
2021/07/13 01:41:29;;;;;;;4.15;1.58;;;22.80;73.20;;;;;;5187835;27;27470;-63
2021/07/13 01:44:20;;;;;;;2.10;1.52;;;22.80;73.30;;;;;;5187823;27;27395;-61
2021/07/13 01:47:08;;;;;;;4.28;1.40;;;22.80;74.00;;;;;;5187544;27;27407;-61
2021/07/13 01:49:59;;;;;;;6.10;1.88;;;22.80;74.70;;;;;;5170116;27;27340;-61
2021/07/13 01:52:50;;;;;;;4.80;2.05;;;22.80;75.60;;;;;;5158967;27;27492;-62
2021/07/13 01:55:40;;;;;;;8.57;2.13;;;22.70;75.60;;;;;;5188054;27;27419;-61
2021/07/13 01:58:31;;;;;;;4.75;1.63;;;22.70;75.70;;;;;;5187459;27;27354;-59
2021/07/13 02:01:23;;;;;;;4.40;1.90;;;22.70;76.10;;;;;;5187673;27;27353;-62
2021/07/13 02:04:15;;;;;;;13.63;2.40;;;22.70;76.60;;;;;;5187866;27;27422;-58
2021/07/13 02:07:07;;;;;;;6.20;2.17;;;22.70;76.80;;;;;;5186865;27;27863;-60
2021/07/13 02:09:56;;;;;;;6.32;2.60;;;22.70;77.40;;;;;;5184904;27;27523;-60
2021/07/13 02:12:49;;;;;;;4.32;1.88;;;22.60;78.40;;;;;;5169828;27;27409;-62
2021/07/13 02:15:46;;;;;;;8.57;2.50;;;22.60;79.30;;;;;;5184238;27;27347;-61
2021/07/13 02:18:33;;;;;;;4.32;2.03;;;22.60;79.70;;;;;;5188402;27;27470;-64
2021/07/13 02:21:21;;;;;;;6.43;2.90;;;22.50;80.60;;;;;;5188205;27;27408;-60
2021/07/13 02:24:17;;;;;;;7.03;1.98;;;22.40;80.70;;;;;;5187554;27;27341;-60
2021/07/13 02:27:41;;;;;;;4.40;2.10;;;22.40;80.60;;;;;;5187116;27;27444;-59
2021/07/13 02:30:31;;;;;;;6.97;2.20;;;22.40;80.90;;;;;;5183622;27;27430;-60
2021/07/13 02:38:00;;;;;;;3.65;1.90;;;22.30;81.00;;;;;;5153424;27;27523;-61
2021/07/13 02:41:22;;;;;;;5.75;1.80;;;22.30;81.30;;;;;;5147785;27;27402;-59
2021/07/13 02:44:10;;;;;;;4.20;2.03;;;22.30;81.60;;;;;;5168519;27;27539;-60
2021/07/13 02:46:58;;;;;;;2.70;1.77;;;22.30;81.40;;;;;;5186841;27;27490;-59
2021/07/13 02:49:51;;;;;;;3.67;1.52;;;22.30;81.50;;;;;;5186844;27;27376;-61
2021/07/13 02:52:39;;;;;;;5.57;1.55;;;22.30;81.50;;;;;;5187611;27;27408;-62
2021/07/13 02:55:32;;;;;;;4.53;1.70;;;22.20;81.30;;;;;;5155453;27;27960;-62
2021/07/13 02:58:20;;;;;;;5.05;1.50;;;22.20;81.60;;;;;;5187081;27;27412;-61
2021/07/13 03:01:08;;;;;;;3.85;1.58;;;22.20;82.00;;;;;;5187267;27;27366;-58
2021/07/13 03:03:55;;;;;;;2.33;1.02;;;22.20;81.40;;;;;;5187406;27;27402;-59
2021/07/13 03:06:42;;;;;;;5.18;1.40;;;22.20;81.20;;;;;;5168874;27;27474;-60
2021/07/13 03:09:29;;;;;;;2.03;1.23;;;22.20;81.20;;;;;;5187029;27;27446;-60
2021/07/13 03:12:17;;;;;;;2.03;1.02;;;22.10;81.70;;;;;;5188151;27;27330;-59
2021/07/13 03:15:05;;;;;;;1.98;1.23;;;22.10;81.50;;;;;;5187762;27;27539;-59
2021/07/13 03:17:55;;;;;;;4.38;2.10;;;22.10;81.00;;;;;;5186893;27;27474;-59
2021/07/13 03:20:44;;;;;;;5.28;1.35;;;22.10;81.30;;;;;;5186903;27;27520;-58
2021/07/13 03:23:51;;;;;;;5.28;1.17;;;22.10;80.70;;;;;;5187983;27;27469;-59
2021/07/13 03:26:40;;;;;;;1.08;0.95;;;22.10;80.90;;;;;;5186637;27;27432;-59
2021/07/13 03:29:30;;;;;;;3.45;1.27;;;22.00;80.80;;;;;;5172198;27;27409;-59
2021/07/13 03:32:17;;;;;;;4.75;1.30;;;22.00;81.00;;;;;;5187808;27;27412;-59
2021/07/13 03:35:07;;;;;;;2.42;1.30;;;21.90;80.90;;;;;;5187596;27;27375;-58
2021/07/13 03:37:55;;;;;;;2.65;1.00;;;21.90;81.10;;;;;;5187043;27;27413;-58
2021/07/13 03:40:45;;;;;;;1.95;1.50;;;21.90;81.70;;;;;;5184228;27;27398;-59
2021/07/13 03:43:36;;;;;;;7.28;1.45;;;22.00;82.30;;;;;;5187693;27;27377;-59
2021/07/13 03:46:24;;;;;;;4.60;1.10;;;21.90;81.60;;;;;;5154019;27;27473;-58
2021/07/13 03:49:12;;;;;;;2.67;1.15;;;21.90;81.50;;;;;;5187399;27;27393;-59
2021/07/13 03:52:04;;;;;;;4.57;1.50;;;21.90;81.80;;;;;;5186733;27;27521;-60
2021/07/13 03:54:51;;;;;;;2.40;1.30;;;21.80;81.80;;;;;;5189064;27;27334;-58
2021/07/13 03:57:39;;;;;;;1.88;1.15;;;21.80;82.00;;;;;;5189973;27;27338;-59
2021/07/13 04:00:32;;;;;;;1.63;0.82;;;21.80;82.10;;;;;;5191076;27;27442;-58
2021/07/13 04:03:29;;;;;;;2.25;1.10;;;21.80;82.00;;;;;;5190070;27;27390;-60
2021/07/13 04:06:16;;;;;;;2.65;1.33;;;21.80;82.20;;;;;;5186711;27;27478;-63
2021/07/13 04:09:08;;;;;;;1.77;1.13;;;21.80;82.30;;;;;;5190313;27;27413;-58
2021/07/13 04:11:56;;;;;;;3.80;1.38;;;21.70;82.10;;;;;;5190381;27;27401;-60
2021/07/13 04:14:43;;;;;;;2.88;1.30;;;21.70;82.10;;;;;;5190557;27;27409;-59
2021/07/13 04:17:34;;;;;;;2.67;1.20;;;21.70;82.10;;;;;;5190170;27;27407;-59
2021/07/13 04:20:22;;;;;;;4.32;1.50;;;21.70;82.40;;;;;;5175289;27;27467;-59
2021/07/13 04:23:10;;;;;;;2.00;1.20;;;21.70;82.70;;;;;;5190466;27;27310;-58
2021/07/13 04:26:08;;;;;;;2.97;1.40;;;21.80;83.30;;;;;;5189335;27;27979;-59
2021/07/13 04:28:57;;;;;;;1.77;1.25;;;21.80;84.10;;;;;;5171919;27;27414;-60
2021/07/13 04:31:45;;;;;;;4.60;1.50;;;21.70;84.40;;;;;;5189611;27;27358;-60
2021/07/13 04:34:32;;;;;;;2.03;0.98;;;21.70;84.70;;;;;;5186578;27;27378;-60
2021/07/13 04:37:19;;;;;;;3.03;1.40;;;21.70;84.40;;;;;;5175230;27;27334;-59
2021/07/13 04:40:11;;;;;;;3.13;1.40;;;21.70;85.00;;;;;;5189763;27;27475;-58
2021/07/13 04:42:59;;;;;;;3.97;1.58;;;21.70;85.20;;;;;;5189415;27;27407;-58
2021/07/13 04:45:50;;;;;;;2.35;1.38;;;21.70;85.10;;;;;;5189264;27;27426;-59
2021/07/13 04:48:38;;;;;;;2.50;1.50;;;21.60;85.20;;;;;;5189599;27;27362;-58
2021/07/13 04:51:26;;;;;;;4.78;1.60;;;21.60;85.40;;;;;;5189436;27;27417;-58
2021/07/13 04:54:16;;;;;;;2.58;1.60;;;21.70;85.80;;;;;;5174617;27;27395;-61
2021/07/13 04:57:04;;;;;;;4.63;1.45;;;21.70;85.90;;;;;;5188659;27;27383;-59
2021/07/13 04:59:53;;;;;;;2.42;1.60;;;21.70;86.00;;;;;;5190082;27;27473;-58
2021/07/13 05:02:43;;;;;;;4.05;2.00;;;21.60;85.90;;;;;;5189355;27;27371;-58
2021/07/13 05:05:31;;;;;;;3.70;1.90;;;21.70;86.60;;;;;;5188322;27;27421;-60
2021/07/13 05:08:22;;;;;;;3.17;1.83;;;21.60;84.80;;;;;;5189830;27;27413;-58
2021/07/13 05:11:10;;;;;;;4.53;1.63;;;21.60;84.90;;;;;;5188889;27;27450;-58
2021/07/13 05:13:57;;;;;;;3.70;1.73;;;21.60;85.60;;;;;;5185360;27;27480;-59
2021/07/13 05:16:45;;;;;;;3.25;1.90;;;21.60;85.70;;;;;;5170989;27;27385;-59
2021/07/13 05:19:34;;;;;;;4.05;1.88;;;21.60;86.20;;;;;;5174158;27;27396;-58
2021/07/13 05:22:24;;;;;;;4.35;2.00;;;21.60;86.20;;;;;;5174625;27;27484;-58
2021/07/13 05:25:18;;;;;;;5.13;2.15;;;21.60;85.10;;;;;;5159592;27;27388;-58
2021/07/13 05:28:10;;;;;;;2.60;1.73;;;21.60;85.30;;;;;;5189084;27;27329;-58
2021/07/13 05:30:59;;;;;;;2.05;1.50;;;21.70;85.70;;;;;;5185665;27;27449;-59
2021/07/13 05:33:47;;;;;;;6.07;2.58;;;21.70;85.80;;;;;;5189253;27;27421;-58
2021/07/13 05:36:34;;;;;;;2.25;1.63;;;21.70;86.00;;;;;;5189527;27;27375;-59
2021/07/13 05:39:22;;;;;;;3.75;1.90;;;21.60;85.80;;;;;;5174258;27;27439;-61
2021/07/13 05:42:12;;;;;;;5.50;1.70;;;21.60;86.10;;;;;;5188483;27;27412;-60
2021/07/13 05:45:01;;;;;;;2.60;1.70;;;21.60;86.70;;;;;;5189379;27;27402;-63
2021/07/13 05:47:49;;;;;;;6.40;2.13;;;21.60;87.20;;;;;;5188761;27;27409;-61
2021/07/13 05:50:36;;;;;;;4.03;2.13;;;21.60;87.20;;;;;;5188713;27;27322;-60
2021/07/13 05:53:24;;;;;;;4.82;2.30;;;21.60;87.60;;;;;;5173933;27;27318;-58
2021/07/13 05:56:13;;;;;;;2.83;2.05;;;21.60;87.20;;;;;;5188237;27;27491;-61
2021/07/13 05:59:01;;;;;;;3.70;2.40;;;21.60;87.50;;;;;;5152730;27;27393;-62
2021/07/13 06:01:49;;;;;;;2.25;1.80;;;21.50;87.60;;;;;;5163793;27;27387;-59
2021/07/13 06:04:37;;;;;;;3.28;2.03;;;21.50;87.60;;;;;;5163931;27;27459;-61
2021/07/13 06:07:25;;;;;;;2.85;2.08;;;21.50;87.60;;;;;;5167866;27;27423;-59
2021/07/13 06:10:15;;;;;;;4.35;2.03;;;21.50;87.60;;;;;;5167885;27;27477;-60
2021/07/13 06:13:03;;;;;;;7.18;2.67;;;21.50;87.70;;;;;;5164595;27;27439;-59
2021/07/13 06:15:53;;;;;;;4.68;1.83;;;21.50;87.80;;;;;;5164504;27;27341;-61
2021/07/13 06:18:40;;;;;;;3.17;2.20;;;21.50;88.00;;;;;;5163665;27;27949;-59
2021/07/13 06:21:32;;;;;;;4.50;2.20;;;21.50;87.30;;;;;;5167792;27;27404;-61
2021/07/13 06:24:21;;;;;;;3.40;2.15;;;21.50;87.60;;;;;;5167222;27;27680;-59
2021/07/13 06:27:09;;;;;;;6.45;3.10;;;21.50;88.70;;;;;;5166622;27;27450;-59
2021/07/13 06:29:59;;;;;;;4.25;2.72;;;21.50;87.90;;;;;;5166662;27;27383;-61
2021/07/13 06:32:48;;;;;;;3.72;2.13;;;21.50;87.90;;;;;;5166798;27;27470;-58
2021/07/13 06:35:36;;;;;;;2.85;2.10;;;21.50;87.40;;;;;;5152011;27;27395;-60
2021/07/13 06:38:24;;;;;;;2.38;1.83;;;21.50;88.00;;;;;;5166777;27;27434;-61
2021/07/13 06:41:12;;;;;;;2.05;1.85;;;21.50;88.00;;;;;;5165869;27;27476;-61
2021/07/13 06:44:00;;;;;;;4.63;1.83;;;21.50;87.70;;;;;;5166459;27;27426;-62
2021/07/13 06:46:53;;;;;;;3.92;2.05;;;21.50;87.80;;;;;;5167249;27;27379;-61
2021/07/13 06:49:54;;;;;;;3.75;2.30;;;21.40;88.00;;;;;;5165665;27;27428;-62
2021/07/13 06:52:43;;;;;;;5.53;1.58;;;21.50;88.10;;;;;;5167272;27;27397;-61
2021/07/13 06:55:30;;;;;;;6.15;2.22;;;21.50;88.10;;;;;;5151646;27;27387;-61
2021/07/13 06:58:20;;;;;;;5.18;3.05;;;21.40;88.00;;;;;;5184051;27;27388;-61
2021/07/13 07:01:07;;;;;;;4.85;2.20;;;21.40;88.10;;;;;;5183792;27;26921;-60
2021/07/13 07:03:55;;;;;;;6.32;2.28;;;21.40;88.20;;;;;;5172778;27;27315;-59
2021/07/13 07:06:43;;;;;;;2.55;2.10;;;21.40;88.10;;;;;;5187588;27;27347;-59
2021/07/13 07:09:33;;;;;;;2.35;2.15;;;21.40;88.20;;;;;;5187527;27;27425;-59
2021/07/13 07:12:22;;;;;;;3.17;1.98;;;21.40;88.30;;;;;;5187446;27;27363;-58
2021/07/13 07:15:11;;;;;;;3.63;1.85;;;21.40;88.50;;;;;;5184619;27;27862;-62
2021/07/13 07:17:58;;;;;;;3.88;1.95;;;21.40;88.40;;;;;;5183837;27;27422;-61
2021/07/13 07:20:47;;;;;;;2.90;1.60;;;21.40;88.50;;;;;;5184403;27;27338;-63
2021/07/13 07:23:36;;;;;;;2.72;1.67;;;21.40;88.30;;;;;;5183509;27;27462;-59
2021/07/13 07:26:29;;;;;;;4.72;1.92;;;21.40;88.10;;;;;;5186762;27;27454;-61
2021/07/13 07:29:21;;;;;;;3.75;1.60;;;21.40;87.80;;;;;;5188988;27;27362;-60
2021/07/13 07:32:13;;;;;;;3.65;1.83;;;21.40;87.90;;;;;;5176020;27;27419;-59
2021/07/13 07:35:01;;;;;;;5.25;1.80;;;21.50;88.10;;;;;;5177065;27;27392;-60
2021/07/13 07:37:49;;;;;;;5.13;1.67;;;21.40;88.20;;;;;;5190371;27;27411;-59
2021/07/13 07:40:40;;;;;;;1.60;1.38;;;21.50;88.30;;;;;;5190661;27;27454;-59
2021/07/13 07:43:30;;;;;;;3.92;1.33;;;21.50;88.30;;;;;;5176166;27;27354;-59
2021/07/13 07:46:19;;;;;;;2.17;1.30;;;21.50;87.80;;;;;;5190913;27;27455;-59
2021/07/13 07:49:07;;;;;;;2.40;1.17;;;21.50;88.00;;;;;;5186862;27;27387;-58
2021/07/13 07:51:54;;;;;;;1.55;1.20;;;21.50;87.70;;;;;;5191262;27;27342;-59
2021/07/13 07:54:42;;;;;;;2.25;1.40;;;21.50;87.10;;;;;;5191307;27;27419;-59
2021/07/13 07:57:40;;;;;;;1.92;1.40;;;21.50;87.40;;;;;;5188514;27;27401;-58
2021/07/13 08:00:33;;;;;;;3.33;1.50;;;21.50;87.40;;;;;;5187691;27;27882;-59
2021/07/13 08:03:39;;;;;;;2.40;1.17;;;21.50;88.10;;;;;;5186466;27;27542;-60
2021/07/13 08:06:39;;;;;;;4.10;1.25;;;21.50;88.10;;;;;;5190632;27;27464;-70
2021/07/13 08:09:32;;;;;;;1.83;1.00;;;21.60;88.10;;;;;;5161130;27;27405;-59
2021/07/13 08:12:20;;;;;;;1.60;0.80;;;21.60;87.80;;;;;;5172201;27;27859;-60
2021/07/13 08:15:13;;;;;;;1.95;1.23;;;21.60;88.30;;;;;;5186442;27;27554;-61
2021/07/13 08:18:12;;;;;;;2.63;1.15;;;21.70;87.50;;;;;;5186571;27;27354;-60
2021/07/13 08:21:01;;;;;;;2.10;1.00;;;21.70;87.90;;;;;;5189764;27;27429;-59
2021/07/13 08:23:52;;;;;;;1.60;1.00;;;21.80;87.90;;;;;;5190469;27;27346;-59
2021/07/13 08:26:42;;;;;;;3.63;1.60;;;21.80;87.90;;;;;;5189676;27;27490;-60
2021/07/13 08:29:33;;;;;;;0.70;0.60;;;21.80;88.20;;;;;;5175249;27;27424;-59
2021/07/13 08:32:21;;;;;;;2.22;1.05;;;21.70;88.50;;;;;;5189401;27;27335;-59
2021/07/13 08:35:11;;;;;;;3.30;0.57;;;21.70;88.50;;;;;;5189832;27;27380;-59
2021/07/13 08:38:00;;;;;;;3.47;1.00;;;21.70;88.50;;;;;;5190276;27;27447;-59
2021/07/13 08:40:48;;;;;;;0.95;0.73;;;21.70;87.30;;;;;;5188984;27;26969;-61
2021/07/13 08:43:51;;;;;;;0.95;0.65;;;21.70;86.10;;;;;;5186291;27;27393;-59
2021/07/13 08:46:48;;;;;;;1.35;0.70;;;21.70;86.60;;;;;;5186797;27;27371;-62
2021/07/13 08:49:51;;;;;;;0.50;0.40;;;21.70;86.10;;;;;;5171378;27;27456;-66
2021/07/13 08:52:57;;;;;;;0.95;0.50;;;21.70;86.20;;;;;;5189433;27;27415;-62
2021/07/13 08:55:45;;;;;;;3.65;0.50;;;21.70;85.80;;;;;;5189256;27;27366;-61
2021/07/13 08:58:34;;;;;;;1.05;0.50;;;21.60;85.40;;;;;;5188231;27;27423;-60
2021/07/13 09:01:26;;;;;;;3.08;0.70;;;21.60;85.40;;;;;;5188597;27;27537;-61
2021/07/13 09:04:15;;;;;;;1.95;0.50;;;21.60;85.50;;;;;;5189200;27;26863;-61
2021/07/13 09:07:11;;;;;;;12.30;2.35;;;21.60;85.60;;;;;;5188766;27;27372;-61
2021/07/13 09:10:08;;;;;;;3.88;0.40;;;21.60;85.40;;;;;;5188909;27;27346;-61
2021/07/13 09:12:58;;;;;;;0.60;0.40;;;21.60;85.50;;;;;;5185585;27;27433;-63
2021/07/13 09:15:55;;;;;;;3.80;0.40;;;21.60;86.60;;;;;;5174651;27;27400;-61
2021/07/13 09:18:57;;;;;;;2.88;0.40;;;21.60;86.10;;;;;;5175187;27;27400;-60
2021/07/13 09:21:50;;;;;;;0.43;0.20;;;21.60;85.70;;;;;;5174400;27;27374;-58
2021/07/13 09:24:41;;;;;;;4.85;1.38;;;21.50;84.90;;;;;;5188973;27;27502;-61
2021/07/13 09:27:30;;;;;;;0.50;0.35;;;21.50;84.50;;;;;;5188920;27;27330;-59
2021/07/13 09:30:20;;;;;;;0.98;0.30;;;21.50;83.90;;;;;;5188975;27;27425;-59
2021/07/13 09:33:17;;;;;;;0.28;0.22;;;21.50;83.70;;;;;;5174220;27;27383;-62
2021/07/13 09:36:15;;;;;;;1.48;0.30;;;21.40;83.20;;;;;;5188839;27;27348;-63
2021/07/13 09:39:03;;;;;;;1.23;0.50;;;21.40;83.00;;;;;;5189589;27;27435;-61
2021/07/13 09:41:56;;;;;;;1.30;0.20;;;21.40;82.90;;;;;;5189489;27;27367;-62
2021/07/13 09:44:44;;;;;;;0.57;0.32;;;21.30;82.90;;;;;;5188626;27;27477;-60
2021/07/13 09:47:44;;;;;;;4.82;0.40;;;21.30;82.80;;;;;;5184619;27;27384;-60
2021/07/13 09:50:39;;;;;;;0.77;0.40;;;21.30;83.30;;;;;;5188738;27;26920;-60
2021/07/13 09:53:31;;;;;;;1.08;0.25;;;21.30;83.40;;;;;;5185657;27;27439;-67
2021/07/13 09:56:24;;;;;;;0.50;0.30;;;21.30;83.50;;;;;;5187376;27;27854;-63
2021/07/13 09:59:12;;;;;;;0.57;0.30;;;21.20;83.90;;;;;;5188508;27;27389;-61
2021/07/13 10:02:04;;;;;;;1.48;0.40;;;21.20;84.60;;;;;;5188200;27;27342;-59
2021/07/13 10:04:56;;;;;;;0.55;0.17;;;21.20;84.50;;;;;;5188488;27;27375;-61
2021/07/13 10:07:47;;;;;;;1.02;0.20;;;21.20;83.90;;;;;;5173843;27;27851;-61
2021/07/13 10:10:39;;;;;;;3.72;1.13;;;21.20;84.70;;;;;;5187985;27;27408;-61
2021/07/13 10:13:28;;;;;;;0.40;0.20;;;21.30;85.90;;;;;;5173696;27;27366;-60
2021/07/13 10:16:16;;;;;;;0.40;0.40;;;21.30;86.50;;;;;;5184536;27;27530;-59
2021/07/13 10:19:08;;;;;;;2.15;0.50;;;21.30;86.80;;;;;;5188857;27;27962;-59
2021/07/13 10:21:56;;;;;;;2.53;0.98;;;21.30;86.40;;;;;;5187859;27;27469;-59
2021/07/13 10:24:49;;;;;;;0.50;0.28;;;21.30;86.60;;;;;;5184377;27;27433;-60
2021/07/13 10:27:42;;;;;;;1.20;0.30;;;21.20;86.70;;;;;;5187445;27;27481;-59
2021/07/13 10:30:32;;;;;;;3.13;0.95;;;21.30;86.30;;;;;;5188449;27;27383;-61
2021/07/13 10:33:38;;;;;;;0.63;0.22;;;21.30;86.70;;;;;;5187539;27;27391;-59
2021/07/13 10:36:30;;;;;;;1.02;0.30;;;21.40;86.90;;;;;;5171010;27;27357;-59
2021/07/13 10:39:39;;;;;;;1.13;0.28;;;21.50;87.00;;;;;;5184860;27;26893;-59
2021/07/13 10:42:45;;;;;;;0.75;0.30;;;21.60;87.60;;;;;;5170546;27;27396;-59
2021/07/13 10:45:41;;;;;;;0.90;0.40;;;21.70;87.90;;;;;;5188127;27;27407;-58
2021/07/13 10:48:32;;;;;;;0.15;0.10;;;21.70;88.40;;;;;;5187769;27;27334;-60
2021/07/13 10:51:19;;;;;;;0.30;0.20;;;21.70;87.60;;;;;;5187021;27;27454;-60
2021/07/13 10:54:09;;;;;;;1.00;0.20;;;21.60;87.60;;;;;;5169834;27;27881;-59
2021/07/13 10:57:25;;;;;;;0.10;0.10;;;21.60;88.00;;;;;;5187565;27;27408;-59
2021/07/13 11:00:15;;;;;;;1.95;0.10;;;21.60;88.80;;;;;;5188101;27;27478;-59
2021/07/13 11:03:03;;;;;;;0.70;0.17;;;21.60;88.50;;;;;;5187287;27;27318;-59
2021/07/13 11:05:57;;;;;;;0.20;0.20;;;21.70;89.00;;;;;;5187123;27;27539;-58
2021/07/13 11:11:35;;;;;;;0.55;0.20;;;21.80;89.20;;;;;;5187999;27;26959;-59
2021/07/13 11:14:24;;;;;;;0.30;0.20;;;21.80;88.50;;;;;;5188131;27;27360;-60
2021/07/13 11:17:12;;;;;;;0.35;0.22;;;21.90;88.50;;;;;;5187725;27;27417;-61
2021/07/13 11:20:02;;;;;;;1.45;0.20;;;21.90;88.60;;;;;;5183796;27;27401;-59
2021/07/13 11:22:54;;;;;;;5.25;0.38;;;21.90;78.80;;;;;;5187263;27;27338;-59
2021/07/13 11:25:45;;;;;;;1.80;0.30;;;21.80;77.90;;;;;;5184156;27;27314;-59
2021/07/13 11:28:34;;;;;;;0.63;0.30;;;21.80;83.50;;;;;;5183473;27;27466;-59
2021/07/13 11:31:40;;;;;;;0.28;0.10;;;21.80;84.00;;;;;;5172383;27;27389;-60
2021/07/13 11:34:41;;;;;;;2.63;0.32;;;21.80;84.20;;;;;;5170513;27;27401;-61
2021/07/13 11:37:29;;;;;;;1.00;0.30;;;21.80;84.80;;;;;;5155899;27;26934;-59
2021/07/13 11:40:30;;;;;;;0.10;0.10;;;21.80;84.90;;;;;;5186701;27;28021;-59
2021/07/13 11:43:29;;;;;;;0.22;0.22;;;21.80;85.70;;;;;;5186947;27;27502;-62
2021/07/13 11:46:18;;;;;;;0.40;0.40;;;21.80;85.70;;;;;;5184085;27;27382;-59
2021/07/13 11:49:09;;;;;;;0.22;0.20;;;21.80;85.50;;;;;;5184008;27;27422;-59
2021/07/13 11:52:07;;;;;;;0.52;0.30;;;21.80;85.40;;;;;;5187506;27;27933;-59
2021/07/13 11:54:57;;;;;;;0.20;0.20;;;22.00;87.30;;;;;;5173063;27;27448;-61
2021/07/13 11:57:52;;;;;;;0.10;0.08;;;22.10;88.80;;;;;;5185352;27;27470;-59
2021/07/13 12:00:46;;;;;;;0.95;0.30;;;22.20;89.90;;;;;;5187190;27;27412;-59
2021/07/13 12:03:34;;;;;;;1.45;0.30;;;22.30;90.50;;;;;;5187382;27;27385;-58
2021/07/13 12:06:26;;;;;;;0.57;0.20;;;22.40;90.60;;;;;;5186958;27;27419;-59
2021/07/13 12:09:26;;;;;;;0.32;0.30;;;22.50;90.80;;;;;;5155008;27;27435;-59
2021/07/13 12:12:16;;;;;;;0.22;0.22;;;22.60;91.20;;;;;;5183279;27;27402;-61
2021/07/13 12:15:07;;;;;;;0.50;0.30;;;22.70;91.30;;;;;;5186657;27;27951;-60
2021/07/13 12:18:03;;;;;;;0.70;0.45;;;22.80;91.40;;;;;;5190636;27;27332;-59
2021/07/13 12:20:55;;;;;;;2.05;0.45;;;22.90;91.30;;;;;;5190017;27;27415;-60
2021/07/13 12:23:49;;;;;;;1.08;0.30;;;23.00;91.10;;;;;;5161013;27;27344;-59
2021/07/13 12:26:37;;;;;;;0.82;0.38;;;23.10;91.10;;;;;;5160715;27;27871;-60
2021/07/13 12:29:38;;;;;;;1.08;0.35;;;23.20;91.20;;;;;;5186590;27;27376;-60
2021/07/13 12:32:33;;;;;;;0.38;0.38;;;23.30;91.20;;;;;;5172175;27;27327;-59
2021/07/13 12:35:30;;;;;;;1.10;0.50;;;23.40;91.20;;;;;;5190789;27;27430;-59
2021/07/13 12:38:28;;;;;;;0.50;0.50;;;23.50;91.10;;;;;;5171778;27;27367;-60
2021/07/13 12:41:18;;;;;;;0.50;0.50;;;23.50;90.90;;;;;;5172596;27;27457;-61
2021/07/13 12:44:32;;;;;;;0.50;0.50;;;23.60;90.20;;;;;;5189566;27;27409;-60
2021/07/13 12:47:52;;;;;;;0.77;0.45;;;23.50;88.90;;;;;;5171122;27;27474;-59
2021/07/13 12:50:53;;;;;;;1.42;0.50;;;23.50;87.50;;;;;;5175523;27;27400;-60
2021/07/13 12:53:44;;;;;;;0.93;0.47;;;23.50;85.60;;;;;;5189652;27;27328;-60
2021/07/13 12:56:33;;;;;;;1.10;0.50;;;23.40;85.40;;;;;;5186466;27;27470;-59
2021/07/13 12:59:23;;;;;;;0.60;0.50;;;23.40;85.70;;;;;;5189184;27;27389;-60
2021/07/13 13:02:15;;;;;;;0.57;0.50;;;23.30;86.20;;;;;;5186442;27;27518;-61
2021/07/13 13:05:06;;;;;;;0.35;0.35;;;23.30;86.60;;;;;;5174666;27;27342;-59
2021/07/13 13:08:09;;;;;;;0.80;0.55;;;23.20;85.80;;;;;;5189853;27;27494;-60
2021/07/13 13:11:12;;;;;;;0.50;0.50;;;23.10;85.50;;;;;;5190009;27;27404;-59
2021/07/13 13:14:03;;;;;;;0.60;0.50;;;23.00;84.80;;;;;;5175913;27;27530;-60
2021/07/13 13:16:54;;;;;;;2.25;0.68;;;22.90;84.00;;;;;;5189742;27;27368;-60
2021/07/13 13:19:45;;;;;;;0.80;0.70;;;22.80;84.20;;;;;;5189971;27;27433;-59
2021/07/13 13:22:33;;;;;;;0.50;0.45;;;22.70;83.60;;;;;;5174544;27;27397;-59
2021/07/13 13:25:25;;;;;;;1.52;0.63;;;22.70;83.20;;;;;;5186128;27;27355;-59
2021/07/13 13:28:15;;;;;;;0.57;0.52;;;22.60;82.60;;;;;;5184801;27;27411;-60
2021/07/13 13:31:04;;;;;;;0.43;0.40;;;22.60;83.10;;;;;;5174042;27;27413;-60
2021/07/13 13:33:56;;;;;;;0.70;0.60;;;22.60;82.60;;;;;;5189454;27;27371;-59
2021/07/13 13:36:44;;;;;;;0.70;0.60;;;22.50;83.20;;;;;;5172533;27;27961;-59
2021/07/13 13:39:46;;;;;;;0.63;0.60;;;22.40;82.50;;;;;;5170640;27;27480;-63
2021/07/13 13:42:33;;;;;;;1.20;0.50;;;22.40;82.70;;;;;;5185148;27;27507;-60
2021/07/13 13:45:20;;;;;;;0.85;0.70;;;22.30;82.20;;;;;;5189477;27;27450;-59
2021/07/13 13:48:08;;;;;;;0.93;0.47;;;22.20;82.40;;;;;;5185707;27;27356;-59
2021/07/13 13:50:57;;;;;;;0.60;0.50;;;22.20;82.80;;;;;;5188566;27;27482;-61
2021/07/13 13:53:48;;;;;;;2.03;0.40;;;22.10;83.30;;;;;;5189129;27;27306;-60
2021/07/13 13:56:36;;;;;;;0.38;0.38;;;22.10;83.70;;;;;;5187682;27;27408;-60
2021/07/13 13:59:26;;;;;;;0.85;0.50;;;22.00;83.40;;;;;;5189221;27;27463;-60
2021/07/13 14:02:15;;;;;;;0.95;0.50;;;22.00;83.80;;;;;;5189243;27;27346;-60
2021/07/13 14:05:04;;;;;;;2.53;0.60;;;21.90;83.70;;;;;;5187564;27;27441;-60
2021/07/13 14:07:53;;;;;;;0.60;0.60;;;21.80;83.70;;;;;;5173225;27;27453;-59
2021/07/13 14:10:41;;;;;;;1.90;0.60;;;21.80;84.20;;;;;;5188733;27;27371;-59
2021/07/13 14:13:28;;;;;;;0.93;0.70;;;21.80;82.30;;;;;;5187923;27;27463;-60
2021/07/13 14:16:22;;;;;;;1.15;0.50;;;21.70;83.60;;;;;;5188710;27;27417;-60
2021/07/13 14:19:13;;;;;;;1.17;0.50;;;21.70;84.10;;;;;;5160979;27;27389;-58
2021/07/13 14:22:01;;;;;;;0.73;0.60;;;21.60;84.10;;;;;;5188256;27;27459;-59
2021/07/13 14:24:49;;;;;;;1.83;0.60;;;21.60;83.70;;;;;;5188943;27;27483;-59
2021/07/13 14:27:36;;;;;;;1.33;0.60;;;21.60;83.90;;;;;;5187775;27;27393;-59
2021/07/13 14:30:24;;;;;;;0.45;0.45;;;21.70;84.50;;;;;;5173045;27;27413;-59
2021/07/13 14:33:13;;;;;;;2.38;0.60;;;21.70;84.50;;;;;;5188403;27;27469;-58
2021/07/13 14:36:02;;;;;;;0.60;0.60;;;21.80;85.00;;;;;;5185307;27;27321;-59
2021/07/13 14:38:50;;;;;;;2.10;0.70;;;21.90;85.40;;;;;;5186372;27;27346;-59
2021/07/13 14:41:41;;;;;;;0.55;0.52;;;22.00;84.80;;;;;;5173478;27;26844;-59
2021/07/13 14:44:29;;;;;;;2.17;0.45;;;22.00;85.10;;;;;;5188249;27;27408;-60
2021/07/13 14:47:17;;;;;;;0.88;0.70;;;22.10;84.30;;;;;;5185281;27;27462;-59
2021/07/13 14:50:08;;;;;;;0.50;0.50;;;22.10;84.70;;;;;;5188712;27;27397;-60
2021/07/13 14:53:00;;;;;;;0.50;0.50;;;22.10;85.20;;;;;;5187703;27;27489;-60
2021/07/13 14:56:00;;;;;;;6.00;0.70;;;22.20;85.70;;;;;;5187622;27;27380;-59
2021/07/13 14:58:53;;;;;;;1.13;0.75;;;22.20;85.90;;;;;;5186797;27;27547;-59
2021/07/13 15:01:49;;;;;;;1.13;0.70;;;22.20;85.40;;;;;;5188109;27;27441;-59